sensor_id;sensor_type;location;lat;lon;timestamp;temperature;humidity
69747;DHT22;57018;50.278;19.134;2024-03-22T00:00:36;13.80;97.40
69747;DHT22;57018;50.278;19.134;2024-03-22T00:03:06;13.70;98.30
69747;DHT22;57018;50.278;19.134;2024-03-22T00:05:36;13.70;98.00
69747;DHT22;57018;50.278;19.134;2024-03-22T00:08:07;13.60;98.40
69747;DHT22;57018;50.278;19.134;2024-03-22T00:10:38;13.60;98.60
69747;DHT22;57018;50.278;19.134;2024-03-22T00:13:07;13.70;99.20
69747;DHT22;57018;50.278;19.134;2024-03-22T00:15:37;13.70;99.80
69747;DHT22;57018;50.278;19.134;2024-03-22T00:18:08;13.80;99.90
69747;DHT22;57018;50.278;19.134;2024-03-22T00:20:37;13.80;99.90
69747;DHT22;57018;50.278;19.134;2024-03-22T00:23:07;13.80;99.90
69747;DHT22;57018;50.278;19.134;2024-03-22T00:25:37;13.70;99.90
69747;DHT22;57018;50.278;19.134;2024-03-22T00:28:07;13.80;99.90
69747;DHT22;57018;50.278;19.134;2024-03-22T00:30:37;13.80;99.90
69747;DHT22;57018;50.278;19.134;2024-03-22T00:33:07;13.80;99.90
69747;DHT22;57018;50.278;19.134;2024-03-22T00:35:35;13.70;99.90
69747;DHT22;57018;50.278;19.134;2024-03-22T00:38:05;13.70;99.90
69747;DHT22;57018;50.278;19.134;2024-03-22T00:40:35;13.80;99.90
69747;DHT22;57018;50.278;19.134;2024-03-22T00:43:06;13.80;99.90
69747;DHT22;57018;50.278;19.134;2024-03-22T00:45:36;13.80;99.90
69747;DHT22;57018;50.278;19.134;2024-03-22T00:48:07;13.70;99.90
69747;DHT22;57018;50.278;19.134;2024-03-22T00:50:36;13.70;99.90
69747;DHT22;57018;50.278;19.134;2024-03-22T00:53:06;13.70;99.90
69747;DHT22;57018;50.278;19.134;2024-03-22T00:55:38;13.60;99.90
69747;DHT22;57018;50.278;19.134;2024-03-22T00:58:08;13.70;99.90
69747;DHT22;57018;50.278;19.134;2024-03-22T01:00:38;13.80;99.90
69747;DHT22;57018;50.278;19.134;2024-03-22T01:03:08;13.60;99.90
69747;DHT22;57018;50.278;19.134;2024-03-22T01:05:38;13.70;99.90
69747;DHT22;57018;50.278;19.134;2024-03-22T01:08:10;13.70;99.90
69747;DHT22;57018;50.278;19.134;2024-03-22T01:10:41;13.70;99.90
69747;DHT22;57018;50.278;19.134;2024-03-22T01:13:11;13.70;99.90
69747;DHT22;57018;50.278;19.134;2024-03-22T01:15:41;13.60;99.90
69747;DHT22;57018;50.278;19.134;2024-03-22T01:18:11;13.70;99.90
69747;DHT22;57018;50.278;19.134;2024-03-22T01:20:41;13.70;99.90
69747;DHT22;57018;50.278;19.134;2024-03-22T01:23:11;13.70;99.90
69747;DHT22;57018;50.278;19.134;2024-03-22T01:25:41;13.70;99.90
69747;DHT22;57018;50.278;19.134;2024-03-22T01:28:10;13.80;99.90
69747;DHT22;57018;50.278;19.134;2024-03-22T01:30:40;13.70;99.90
69747;DHT22;57018;50.278;19.134;2024-03-22T01:33:10;13.90;99.90
69747;DHT22;57018;50.278;19.134;2024-03-22T01:35:40;13.80;99.90
69747;DHT22;57018;50.278;19.134;2024-03-22T01:38:10;13.80;99.90
69747;DHT22;57018;50.278;19.134;2024-03-22T01:40:40;13.80;99.90
69747;DHT22;57018;50.278;19.134;2024-03-22T01:43:10;13.80;99.90
69747;DHT22;57018;50.278;19.134;2024-03-22T01:45:40;13.70;99.90
69747;DHT22;57018;50.278;19.134;2024-03-22T01:48:10;13.60;99.90
69747;DHT22;57018;50.278;19.134;2024-03-22T01:50:41;13.70;99.90
69747;DHT22;57018;50.278;19.134;2024-03-22T01:53:11;13.60;99.90
69747;DHT22;57018;50.278;19.134;2024-03-22T01:55:41;13.70;99.90
69747;DHT22;57018;50.278;19.134;2024-03-22T01:58:12;13.70;99.90
69747;DHT22;57018;50.278;19.134;2024-03-22T02:00:42;13.60;99.90
69747;DHT22;57018;50.278;19.134;2024-03-22T02:03:12;13.50;99.90
69747;DHT22;57018;50.278;19.134;2024-03-22T02:05:43;13.50;99.90
69747;DHT22;57018;50.278;19.134;2024-03-22T02:08:13;13.40;99.90
69747;DHT22;57018;50.278;19.134;2024-03-22T02:10:43;13.10;99.90
69747;DHT22;57018;50.278;19.134;2024-03-22T02:13:13;13.10;99.90
69747;DHT22;57018;50.278;19.134;2024-03-22T02:15:43;13.00;99.90
69747;DHT22;57018;50.278;19.134;2024-03-22T02:18:13;13.00;99.90
69747;DHT22;57018;50.278;19.134;2024-03-22T02:20:43;12.90;99.90
69747;DHT22;57018;50.278;19.134;2024-03-22T02:23:13;13.00;99.90
69747;DHT22;57018;50.278;19.134;2024-03-22T02:25:43;12.80;99.90
69747;DHT22;57018;50.278;19.134;2024-03-22T02:28:12;12.80;99.90
69747;DHT22;57018;50.278;19.134;2024-03-22T02:30:41;12.90;99.90
69747;DHT22;57018;50.278;19.134;2024-03-22T02:33:11;12.80;99.90
69747;DHT22;57018;50.278;19.134;2024-03-22T02:35:40;12.80;99.90
69747;DHT22;57018;50.278;19.134;2024-03-22T02:38:10;12.80;99.90
69747;DHT22;57018;50.278;19.134;2024-03-22T02:40:44;12.70;99.90
69747;DHT22;57018;50.278;19.134;2024-03-22T02:43:16;12.70;99.90
69747;DHT22;57018;50.278;19.134;2024-03-22T02:45:47;12.60;99.90
69747;DHT22;57018;50.278;19.134;2024-03-22T02:48:17;12.50;99.90
69747;DHT22;57018;50.278;19.134;2024-03-22T02:50:48;12.60;99.90
69747;DHT22;57018;50.278;19.134;2024-03-22T02:53:18;12.50;99.90
69747;DHT22;57018;50.278;19.134;2024-03-22T02:55:48;12.60;99.90
69747;DHT22;57018;50.278;19.134;2024-03-22T02:58:19;12.60;99.90
69747;DHT22;57018;50.278;19.134;2024-03-22T03:00:49;12.60;99.90
69747;DHT22;57018;50.278;19.134;2024-03-22T03:03:21;12.60;99.90
69747;DHT22;57018;50.278;19.134;2024-03-22T03:05:51;12.60;99.90
69747;DHT22;57018;50.278;19.134;2024-03-22T03:08:22;12.50;99.90
69747;DHT22;57018;50.278;19.134;2024-03-22T03:10:52;12.50;99.90
69747;DHT22;57018;50.278;19.134;2024-03-22T03:13:22;12.50;99.90
69747;DHT22;57018;50.278;19.134;2024-03-22T03:15:52;12.40;99.90
69747;DHT22;57018;50.278;19.134;2024-03-22T03:18:22;12.40;99.90
69747;DHT22;57018;50.278;19.134;2024-03-22T03:20:52;12.40;99.90
69747;DHT22;57018;50.278;19.134;2024-03-22T03:23:22;12.40;99.90
69747;DHT22;57018;50.278;19.134;2024-03-22T03:25:52;12.50;99.90
69747;DHT22;57018;50.278;19.134;2024-03-22T03:28:22;12.50;99.90
69747;DHT22;57018;50.278;19.134;2024-03-22T03:30:54;12.60;99.90
69747;DHT22;57018;50.278;19.134;2024-03-22T03:33:24;12.50;99.90
69747;DHT22;57018;50.278;19.134;2024-03-22T03:35:54;12.60;99.90
69747;DHT22;57018;50.278;19.134;2024-03-22T03:38:25;12.50;99.90
69747;DHT22;57018;50.278;19.134;2024-03-22T03:40:54;12.60;99.90
69747;DHT22;57018;50.278;19.134;2024-03-22T03:43:24;12.70;99.90
69747;DHT22;57018;50.278;19.134;2024-03-22T03:45:54;12.50;99.90
69747;DHT22;57018;50.278;19.134;2024-03-22T03:48:25;12.60;99.90
69747;DHT22;57018;50.278;19.134;2024-03-22T03:50:53;12.50;99.90
69747;DHT22;57018;50.278;19.134;2024-03-22T03:53:24;12.50;99.90
69747;DHT22;57018;50.278;19.134;2024-03-22T03:55:54;12.40;99.90
69747;DHT22;57018;50.278;19.134;2024-03-22T03:58:24;12.40;99.90
69747;DHT22;57018;50.278;19.134;2024-03-22T04:00:56;12.40;99.90
69747;DHT22;57018;50.278;19.134;2024-03-22T04:03:26;12.40;99.90
69747;DHT22;57018;50.278;19.134;2024-03-22T04:05:59;12.40;99.90
69747;DHT22;57018;50.278;19.134;2024-03-22T04:08:30;12.50;99.90
69747;DHT22;57018;50.278;19.134;2024-03-22T04:11:01;12.50;99.90
69747;DHT22;57018;50.278;19.134;2024-03-22T04:13:31;12.40;99.90
69747;DHT22;57018;50.278;19.134;2024-03-22T04:16:01;12.50;99.90
69747;DHT22;57018;50.278;19.134;2024-03-22T04:18:31;12.40;99.90
69747;DHT22;57018;50.278;19.134;2024-03-22T04:21:01;12.40;99.90
69747;DHT22;57018;50.278;19.134;2024-03-22T04:23:31;12.30;99.90
69747;DHT22;57018;50.278;19.134;2024-03-22T04:26:02;12.30;99.90
69747;DHT22;57018;50.278;19.134;2024-03-22T04:28:32;12.20;99.90
69747;DHT22;57018;50.278;19.134;2024-03-22T04:31:10;12.30;99.90
69747;DHT22;57018;50.278;19.134;2024-03-22T04:33:40;12.20;99.90
69747;DHT22;57018;50.278;19.134;2024-03-22T04:36:10;12.10;99.90
69747;DHT22;57018;50.278;19.134;2024-03-22T04:38:38;12.10;99.90
69747;DHT22;57018;50.278;19.134;2024-03-22T04:41:08;12.20;99.90
69747;DHT22;57018;50.278;19.134;2024-03-22T04:43:38;12.10;99.90
69747;DHT22;57018;50.278;19.134;2024-03-22T04:46:08;12.10;99.90
69747;DHT22;57018;50.278;19.134;2024-03-22T04:48:38;12.10;99.90
69747;DHT22;57018;50.278;19.134;2024-03-22T04:51:09;12.20;99.90
69747;DHT22;57018;50.278;19.134;2024-03-22T04:53:41;12.20;99.90
69747;DHT22;57018;50.278;19.134;2024-03-22T04:56:12;12.40;99.90
69747;DHT22;57018;50.278;19.134;2024-03-22T04:58:42;12.30;99.90
69747;DHT22;57018;50.278;19.134;2024-03-22T05:01:12;12.30;99.90
69747;DHT22;57018;50.278;19.134;2024-03-22T05:03:42;12.40;99.90
69747;DHT22;57018;50.278;19.134;2024-03-22T05:06:12;12.40;99.90
69747;DHT22;57018;50.278;19.134;2024-03-22T05:08:41;12.50;99.90
69747;DHT22;57018;50.278;19.134;2024-03-22T05:11:11;12.40;99.90
69747;DHT22;57018;50.278;19.134;2024-03-22T05:13:41;12.50;99.90
69747;DHT22;57018;50.278;19.134;2024-03-22T05:16:11;12.60;99.90
69747;DHT22;57018;50.278;19.134;2024-03-22T05:18:41;12.70;99.90
69747;DHT22;57018;50.278;19.134;2024-03-22T05:21:12;12.60;99.90
69747;DHT22;57018;50.278;19.134;2024-03-22T05:23:42;12.70;99.90
69747;DHT22;57018;50.278;19.134;2024-03-22T05:26:11;12.60;99.90
69747;DHT22;57018;50.278;19.134;2024-03-22T05:28:41;12.70;99.90
69747;DHT22;57018;50.278;19.134;2024-03-22T05:31:11;12.70;99.90
69747;DHT22;57018;50.278;19.134;2024-03-22T05:33:41;12.60;99.90
69747;DHT22;57018;50.278;19.134;2024-03-22T05:36:11;12.70;99.90
69747;DHT22;57018;50.278;19.134;2024-03-22T05:38:41;12.70;99.90
69747;DHT22;57018;50.278;19.134;2024-03-22T05:41:11;12.50;99.90
69747;DHT22;57018;50.278;19.134;2024-03-22T05:43:41;12.60;99.90
69747;DHT22;57018;50.278;19.134;2024-03-22T05:46:11;12.60;99.90
69747;DHT22;57018;50.278;19.134;2024-03-22T05:48:41;12.60;99.90
69747;DHT22;57018;50.278;19.134;2024-03-22T05:51:11;12.60;99.90
69747;DHT22;57018;50.278;19.134;2024-03-22T05:53:41;12.70;99.90
69747;DHT22;57018;50.278;19.134;2024-03-22T05:56:11;12.70;99.90
69747;DHT22;57018;50.278;19.134;2024-03-22T05:58:40;12.60;99.90
69747;DHT22;57018;50.278;19.134;2024-03-22T06:01:10;12.70;99.90
69747;DHT22;57018;50.278;19.134;2024-03-22T06:03:40;12.70;99.90
69747;DHT22;57018;50.278;19.134;2024-03-22T06:06:10;12.70;99.90
69747;DHT22;57018;50.278;19.134;2024-03-22T06:08:42;12.60;99.90
69747;DHT22;57018;50.278;19.134;2024-03-22T06:11:13;12.60;99.90
69747;DHT22;57018;50.278;19.134;2024-03-22T06:13:43;12.70;99.90
69747;DHT22;57018;50.278;19.134;2024-03-22T06:16:13;12.70;99.90
69747;DHT22;57018;50.278;19.134;2024-03-22T06:18:43;12.70;99.90
69747;DHT22;57018;50.278;19.134;2024-03-22T06:21:13;12.60;99.90
69747;DHT22;57018;50.278;19.134;2024-03-22T06:23:44;12.60;99.90
69747;DHT22;57018;50.278;19.134;2024-03-22T06:26:14;12.70;99.90
69747;DHT22;57018;50.278;19.134;2024-03-22T06:28:44;12.70;99.90
69747;DHT22;57018;50.278;19.134;2024-03-22T06:31:13;12.70;99.90
69747;DHT22;57018;50.278;19.134;2024-03-22T06:33:43;12.70;99.90
69747;DHT22;57018;50.278;19.134;2024-03-22T06:36:13;12.60;99.90
69747;DHT22;57018;50.278;19.134;2024-03-22T06:38:43;12.50;99.90
69747;DHT22;57018;50.278;19.134;2024-03-22T06:41:13;12.70;99.90
69747;DHT22;57018;50.278;19.134;2024-03-22T06:43:43;12.70;99.90
69747;DHT22;57018;50.278;19.134;2024-03-22T06:46:14;12.70;99.90
69747;DHT22;57018;50.278;19.134;2024-03-22T06:48:44;12.70;99.90
69747;DHT22;57018;50.278;19.134;2024-03-22T06:51:14;12.80;99.90
69747;DHT22;57018;50.278;19.134;2024-03-22T06:53:44;12.80;99.90
69747;DHT22;57018;50.278;19.134;2024-03-22T06:56:16;12.80;99.70
69747;DHT22;57018;50.278;19.134;2024-03-22T06:58:46;12.90;98.70
69747;DHT22;57018;50.278;19.134;2024-03-22T07:01:16;12.90;98.30
69747;DHT22;57018;50.278;19.134;2024-03-22T07:03:46;12.80;98.60
69747;DHT22;57018;50.278;19.134;2024-03-22T07:06:19;13.00;98.40
69747;DHT22;57018;50.278;19.134;2024-03-22T07:08:49;12.90;98.80
69747;DHT22;57018;50.278;19.134;2024-03-22T07:11:19;12.90;99.00
69747;DHT22;57018;50.278;19.134;2024-03-22T07:13:49;12.90;98.80
69747;DHT22;57018;50.278;19.134;2024-03-22T07:16:20;12.90;98.80
69747;DHT22;57018;50.278;19.134;2024-03-22T07:18:49;13.00;98.40
69747;DHT22;57018;50.278;19.134;2024-03-22T07:21:19;13.00;97.90
69747;DHT22;57018;50.278;19.134;2024-03-22T07:23:49;13.20;98.10
69747;DHT22;57018;50.278;19.134;2024-03-22T07:26:19;13.20;98.10
69747;DHT22;57018;50.278;19.134;2024-03-22T07:28:49;13.30;97.60
69747;DHT22;57018;50.278;19.134;2024-03-22T07:31:19;13.40;97.40
69747;DHT22;57018;50.278;19.134;2024-03-22T07:33:51;13.40;96.70
69747;DHT22;57018;50.278;19.134;2024-03-22T07:36:22;13.50;96.60
69747;DHT22;57018;50.278;19.134;2024-03-22T07:38:53;13.60;96.20
69747;DHT22;57018;50.278;19.134;2024-03-22T07:41:24;13.50;96.60
69747;DHT22;57018;50.278;19.134;2024-03-22T07:43:54;13.60;96.50
69747;DHT22;57018;50.278;19.134;2024-03-22T07:46:24;13.50;96.00
69747;DHT22;57018;50.278;19.134;2024-03-22T07:48:54;13.60;96.10
69747;DHT22;57018;50.278;19.134;2024-03-22T07:51:24;13.70;96.80
69747;DHT22;57018;50.278;19.134;2024-03-22T07:53:54;13.60;96.80
69747;DHT22;57018;50.278;19.134;2024-03-22T07:56:26;13.70;97.30
69747;DHT22;57018;50.278;19.134;2024-03-22T07:58:59;13.60;97.60
69747;DHT22;57018;50.278;19.134;2024-03-22T08:01:30;13.90;97.30
69747;DHT22;57018;50.278;19.134;2024-03-22T08:03:59;13.90;96.40
69747;DHT22;57018;50.278;19.134;2024-03-22T08:06:29;13.90;96.40
69747;DHT22;57018;50.278;19.134;2024-03-22T08:08:59;14.00;95.70
69747;DHT22;57018;50.278;19.134;2024-03-22T08:11:31;14.10;95.70
69747;DHT22;57018;50.278;19.134;2024-03-22T08:14:01;14.10;95.20
69747;DHT22;57018;50.278;19.134;2024-03-22T08:16:32;14.10;95.60
69747;DHT22;57018;50.278;19.134;2024-03-22T08:19:02;14.00;95.40
69747;DHT22;57018;50.278;19.134;2024-03-22T08:21:32;14.00;94.90
69747;DHT22;57018;50.278;19.134;2024-03-22T08:24:03;14.10;95.10
69747;DHT22;57018;50.278;19.134;2024-03-22T08:26:33;14.20;94.30
69747;DHT22;57018;50.278;19.134;2024-03-22T08:29:03;14.30;94.50
69747;DHT22;57018;50.278;19.134;2024-03-22T08:31:33;14.30;94.50
69747;DHT22;57018;50.278;19.134;2024-03-22T08:34:03;14.40;93.90
69747;DHT22;57018;50.278;19.134;2024-03-22T08:36:34;14.50;93.70
69747;DHT22;57018;50.278;19.134;2024-03-22T08:39:05;14.50;93.60
69747;DHT22;57018;50.278;19.134;2024-03-22T08:41:38;14.60;93.40
69747;DHT22;57018;50.278;19.134;2024-03-22T08:44:08;14.60;92.60
69747;DHT22;57018;50.278;19.134;2024-03-22T08:46:40;14.70;91.80
69747;DHT22;57018;50.278;19.134;2024-03-22T08:49:10;14.80;91.10
69747;DHT22;57018;50.278;19.134;2024-03-22T08:51:41;14.90;90.90
69747;DHT22;57018;50.278;19.134;2024-03-22T08:54:11;15.00;90.00
69747;DHT22;57018;50.278;19.134;2024-03-22T08:56:41;15.10;89.20
69747;DHT22;57018;50.278;19.134;2024-03-22T08:59:11;15.10;89.10
69747;DHT22;57018;50.278;19.134;2024-03-22T09:01:41;15.10;88.20
69747;DHT22;57018;50.278;19.134;2024-03-22T09:04:14;15.20;87.90
69747;DHT22;57018;50.278;19.134;2024-03-22T09:06:44;15.20;87.80
69747;DHT22;57018;50.278;19.134;2024-03-22T09:09:17;15.20;86.40
69747;DHT22;57018;50.278;19.134;2024-03-22T09:11:47;15.20;86.40
69747;DHT22;57018;50.278;19.134;2024-03-22T09:14:17;15.10;87.00
69747;DHT22;57018;50.278;19.134;2024-03-22T09:16:47;15.00;86.50
69747;DHT22;57018;50.278;19.134;2024-03-22T09:19:18;14.90;87.40
69747;DHT22;57018;50.278;19.134;2024-03-22T09:21:48;14.80;88.40
69747;DHT22;57018;50.278;19.134;2024-03-22T09:24:17;14.80;88.70
69747;DHT22;57018;50.278;19.134;2024-03-22T09:26:48;14.80;88.50
69747;DHT22;57018;50.278;19.134;2024-03-22T09:29:18;14.80;88.80
69747;DHT22;57018;50.278;19.134;2024-03-22T09:31:48;14.90;89.10
69747;DHT22;57018;50.278;19.134;2024-03-22T09:34:19;15.00;89.10
69747;DHT22;57018;50.278;19.134;2024-03-22T09:36:49;15.30;88.10
69747;DHT22;57018;50.278;19.134;2024-03-22T09:39:19;15.60;85.20
69747;DHT22;57018;50.278;19.134;2024-03-22T09:41:49;16.00;83.00
69747;DHT22;57018;50.278;19.134;2024-03-22T09:44:20;16.20;80.60
69747;DHT22;57018;50.278;19.134;2024-03-22T09:46:52;16.60;78.50
69747;DHT22;57018;50.278;19.134;2024-03-22T09:49:22;16.70;76.00
69747;DHT22;57018;50.278;19.134;2024-03-22T09:51:53;16.70;75.30
69747;DHT22;57018;50.278;19.134;2024-03-22T09:54:25;16.50;75.30
69747;DHT22;57018;50.278;19.134;2024-03-22T09:56:57;16.40;76.00
69747;DHT22;57018;50.278;19.134;2024-03-22T09:59:27;16.30;76.50
69747;DHT22;57018;50.278;19.134;2024-03-22T10:01:58;16.40;76.60
69747;DHT22;57018;50.278;19.134;2024-03-22T10:04:29;16.50;76.10
69747;DHT22;57018;50.278;19.134;2024-03-22T10:06:59;16.60;75.90
69747;DHT22;57018;50.278;19.134;2024-03-22T10:09:32;16.80;74.70
69747;DHT22;57018;50.278;19.134;2024-03-22T10:12:02;16.90;73.80
69747;DHT22;57018;50.278;19.134;2024-03-22T10:14:32;17.10;72.00
69747;DHT22;57018;50.278;19.134;2024-03-22T10:17:04;17.40;70.80
69747;DHT22;57018;50.278;19.134;2024-03-22T10:19:34;17.60;68.30
69747;DHT22;57018;50.278;19.134;2024-03-22T10:22:04;18.10;67.10
69747;DHT22;57018;50.278;19.134;2024-03-22T10:24:34;18.20;64.40
69747;DHT22;57018;50.278;19.134;2024-03-22T10:27:05;18.20;63.70
69747;DHT22;57018;50.278;19.134;2024-03-22T10:29:35;18.10;64.10
69747;DHT22;57018;50.278;19.134;2024-03-22T10:32:06;18.00;64.20
69747;DHT22;57018;50.278;19.134;2024-03-22T10:34:36;18.00;64.10
69747;DHT22;57018;50.278;19.134;2024-03-22T10:37:09;17.80;64.50
69747;DHT22;57018;50.278;19.134;2024-03-22T10:39:40;17.80;64.60
69747;DHT22;57018;50.278;19.134;2024-03-22T10:42:12;17.80;64.70
69747;DHT22;57018;50.278;19.134;2024-03-22T10:44:43;18.00;65.00
69747;DHT22;57018;50.278;19.134;2024-03-22T10:47:15;18.20;62.70
69747;DHT22;57018;50.278;19.134;2024-03-22T10:49:47;18.30;60.20
69747;DHT22;57018;50.278;19.134;2024-03-22T10:52:19;18.30;60.10
69747;DHT22;57018;50.278;19.134;2024-03-22T10:54:49;18.20;60.50
69747;DHT22;57018;50.278;19.134;2024-03-22T10:57:20;18.10;61.80
69747;DHT22;57018;50.278;19.134;2024-03-22T10:59:50;18.00;61.30
69747;DHT22;57018;50.278;19.134;2024-03-22T11:02:27;18.20;59.40
69747;DHT22;57018;50.278;19.134;2024-03-22T11:04:59;18.20;59.50
69747;DHT22;57018;50.278;19.134;2024-03-22T11:07:31;18.00;61.00
69747;DHT22;57018;50.278;19.134;2024-03-22T11:10:04;17.90;61.40
69747;DHT22;57018;50.278;19.134;2024-03-22T11:12:38;17.90;60.80
69747;DHT22;57018;50.278;19.134;2024-03-22T11:15:10;18.00;60.40
69747;DHT22;57018;50.278;19.134;2024-03-22T11:17:41;17.90;60.00
69747;DHT22;57018;50.278;19.134;2024-03-22T11:20:12;18.00;59.80
69747;DHT22;57018;50.278;19.134;2024-03-22T11:22:44;18.00;59.70
69747;DHT22;57018;50.278;19.134;2024-03-22T11:25:14;18.00;59.50
69747;DHT22;57018;50.278;19.134;2024-03-22T11:27:44;17.90;59.10
69747;DHT22;57018;50.278;19.134;2024-03-22T11:30:14;17.70;59.70
69747;DHT22;57018;50.278;19.134;2024-03-22T11:32:44;17.60;60.80
69747;DHT22;57018;50.278;19.134;2024-03-22T11:35:15;17.50;61.70
69747;DHT22;57018;50.278;19.134;2024-03-22T11:37:45;17.40;61.80
69747;DHT22;57018;50.278;19.134;2024-03-22T11:40:15;17.30;62.20
69747;DHT22;57018;50.278;19.134;2024-03-22T11:42:49;17.20;63.00
69747;DHT22;57018;50.278;19.134;2024-03-22T11:45:21;17.10;63.30
69747;DHT22;57018;50.278;19.134;2024-03-22T11:47:51;17.00;64.10
69747;DHT22;57018;50.278;19.134;2024-03-22T11:50:21;17.10;64.10
69747;DHT22;57018;50.278;19.134;2024-03-22T11:52:51;17.00;64.20
69747;DHT22;57018;50.278;19.134;2024-03-22T11:55:22;17.00;64.30
69747;DHT22;57018;50.278;19.134;2024-03-22T11:57:52;16.90;64.20
69747;DHT22;57018;50.278;19.134;2024-03-22T12:00:22;17.00;64.60
69747;DHT22;57018;50.278;19.134;2024-03-22T12:02:54;16.90;64.30
69747;DHT22;57018;50.278;19.134;2024-03-22T12:05:24;16.70;65.40
69747;DHT22;57018;50.278;19.134;2024-03-22T12:07:55;16.70;66.20
69747;DHT22;57018;50.278;19.134;2024-03-22T12:10:25;16.70;66.40
69747;DHT22;57018;50.278;19.134;2024-03-22T12:12:55;16.70;66.00
69747;DHT22;57018;50.278;19.134;2024-03-22T12:15:25;16.70;65.60
69747;DHT22;57018;50.278;19.134;2024-03-22T12:17:55;16.80;65.00
69747;DHT22;57018;50.278;19.134;2024-03-22T12:20:25;16.90;64.00
69747;DHT22;57018;50.278;19.134;2024-03-22T12:22:55;16.90;63.50
69747;DHT22;57018;50.278;19.134;2024-03-22T12:25:25;17.00;63.40
69747;DHT22;57018;50.278;19.134;2024-03-22T12:27:55;17.00;63.30
69747;DHT22;57018;50.278;19.134;2024-03-22T12:30:25;17.00;63.80
69747;DHT22;57018;50.278;19.134;2024-03-22T12:32:55;17.10;64.60
69747;DHT22;57018;50.278;19.134;2024-03-22T12:35:25;17.20;64.00
69747;DHT22;57018;50.278;19.134;2024-03-22T12:37:55;17.30;63.90
69747;DHT22;57018;50.278;19.134;2024-03-22T12:40:26;17.30;64.00
69747;DHT22;57018;50.278;19.134;2024-03-22T12:42:56;17.50;63.10
69747;DHT22;57018;50.278;19.134;2024-03-22T12:45:26;17.60;61.30
69747;DHT22;57018;50.278;19.134;2024-03-22T12:47:56;17.80;60.60
69747;DHT22;57018;50.278;19.134;2024-03-22T12:50:27;17.90;60.00
69747;DHT22;57018;50.278;19.134;2024-03-22T12:52:57;17.80;59.40
69747;DHT22;57018;50.278;19.134;2024-03-22T12:55:26;18.00;59.00
69747;DHT22;57018;50.278;19.134;2024-03-22T12:57:59;18.00;58.00
69747;DHT22;57018;50.278;19.134;2024-03-22T13:00:29;18.00;58.30
69747;DHT22;57018;50.278;19.134;2024-03-22T13:02:59;18.10;58.30
69747;DHT22;57018;50.278;19.134;2024-03-22T13:05:29;18.10;58.40
69747;DHT22;57018;50.278;19.134;2024-03-22T13:07:59;18.00;58.80
69747;DHT22;57018;50.278;19.134;2024-03-22T13:10:32;18.00;58.50
69747;DHT22;57018;50.278;19.134;2024-03-22T13:13:02;17.90;58.80
69747;DHT22;57018;50.278;19.134;2024-03-22T13:15:32;17.80;59.20
69747;DHT22;57018;50.278;19.134;2024-03-22T13:18:04;17.70;59.30
69747;DHT22;57018;50.278;19.134;2024-03-22T13:20:34;17.50;59.90
69747;DHT22;57018;50.278;19.134;2024-03-22T13:23:05;17.40;60.20
69747;DHT22;57018;50.278;19.134;2024-03-22T13:25:37;17.30;60.80
69747;DHT22;57018;50.278;19.134;2024-03-22T13:28:07;17.30;60.80
69747;DHT22;57018;50.278;19.134;2024-03-22T13:30:37;17.30;60.80
69747;DHT22;57018;50.278;19.134;2024-03-22T13:33:08;17.30;61.00
69747;DHT22;57018;50.278;19.134;2024-03-22T13:35:38;17.40;60.50
69747;DHT22;57018;50.278;19.134;2024-03-22T13:38:09;17.40;60.80
69747;DHT22;57018;50.278;19.134;2024-03-22T13:40:42;17.50;60.50
69747;DHT22;57018;50.278;19.134;2024-03-22T13:43:13;17.40;60.40
69747;DHT22;57018;50.278;19.134;2024-03-22T13:45:44;17.30;60.10
69747;DHT22;57018;50.278;19.134;2024-03-22T13:48:14;17.30;60.80
69747;DHT22;57018;50.278;19.134;2024-03-22T13:50:44;17.20;61.20
69747;DHT22;57018;50.278;19.134;2024-03-22T13:53:16;17.10;61.80
69747;DHT22;57018;50.278;19.134;2024-03-22T13:55:46;17.00;62.50
69747;DHT22;57018;50.278;19.134;2024-03-22T13:58:16;16.90;63.20
69747;DHT22;57018;50.278;19.134;2024-03-22T14:00:46;16.90;63.20
69747;DHT22;57018;50.278;19.134;2024-03-22T14:03:17;16.80;63.40
69747;DHT22;57018;50.278;19.134;2024-03-22T14:05:47;16.80;63.10
69747;DHT22;57018;50.278;19.134;2024-03-22T14:08:17;16.70;63.70
69747;DHT22;57018;50.278;19.134;2024-03-22T14:10:46;16.60;64.10
69747;DHT22;57018;50.278;19.134;2024-03-22T14:13:16;16.60;64.50
69747;DHT22;57018;50.278;19.134;2024-03-22T14:15:47;16.50;64.70
69747;DHT22;57018;50.278;19.134;2024-03-22T14:18:15;16.40;65.50
69747;DHT22;57018;50.278;19.134;2024-03-22T14:20:45;16.30;65.80
69747;DHT22;57018;50.278;19.134;2024-03-22T14:23:17;16.30;66.40
69747;DHT22;57018;50.278;19.134;2024-03-22T14:25:51;16.30;66.60
69747;DHT22;57018;50.278;19.134;2024-03-22T14:28:20;16.40;67.00
69747;DHT22;57018;50.278;19.134;2024-03-22T14:30:51;16.30;67.00
69747;DHT22;57018;50.278;19.134;2024-03-22T14:33:21;16.20;66.70
69747;DHT22;57018;50.278;19.134;2024-03-22T14:35:50;16.20;66.70
69747;DHT22;57018;50.278;19.134;2024-03-22T14:38:20;16.20;66.60
69747;DHT22;57018;50.278;19.134;2024-03-22T14:40:50;16.20;66.50
69747;DHT22;57018;50.278;19.134;2024-03-22T14:43:21;16.20;66.70
69747;DHT22;57018;50.278;19.134;2024-03-22T14:45:51;16.20;67.00
69747;DHT22;57018;50.278;19.134;2024-03-22T14:48:22;16.20;66.00
69747;DHT22;57018;50.278;19.134;2024-03-22T14:50:52;16.40;66.10
69747;DHT22;57018;50.278;19.134;2024-03-22T14:53:22;16.30;66.10
69747;DHT22;57018;50.278;19.134;2024-03-22T14:55:56;16.30;66.20
69747;DHT22;57018;50.278;19.134;2024-03-22T14:58:27;16.40;66.40
69747;DHT22;57018;50.278;19.134;2024-03-22T15:01:00;16.30;67.10
69747;DHT22;57018;50.278;19.134;2024-03-22T15:03:30;16.20;68.10
69747;DHT22;57018;50.278;19.134;2024-03-22T15:06:00;16.10;69.20
69747;DHT22;57018;50.278;19.134;2024-03-22T15:08:31;16.00;70.00
69747;DHT22;57018;50.278;19.134;2024-03-22T15:11:03;15.90;70.80
69747;DHT22;57018;50.278;19.134;2024-03-22T15:13:33;15.80;71.80
69747;DHT22;57018;50.278;19.134;2024-03-22T15:16:03;15.80;72.60
69747;DHT22;57018;50.278;19.134;2024-03-22T15:18:33;15.60;73.40
69747;DHT22;57018;50.278;19.134;2024-03-22T15:21:03;15.50;74.70
69747;DHT22;57018;50.278;19.134;2024-03-22T15:23:33;15.50;74.90
69747;DHT22;57018;50.278;19.134;2024-03-22T15:26:04;15.50;75.30
69747;DHT22;57018;50.278;19.134;2024-03-22T15:28:34;15.60;75.10
69747;DHT22;57018;50.278;19.134;2024-03-22T15:31:04;15.60;75.30
69747;DHT22;57018;50.278;19.134;2024-03-22T15:33:34;15.60;75.30